createdAt,value
2023-03-11T00:00:50.713Z,60.46
2023-03-11T00:03:18.489Z,59.57
2023-03-11T00:05:46.241Z,58.94
2023-03-11T00:08:15.495Z,60.20
2023-03-11T00:10:42.990Z,59.29
2023-03-11T00:13:10.601Z,59.47
2023-03-11T00:15:37.617Z,58.84
2023-03-11T00:18:04.944Z,58.26
2023-03-11T00:20:33.164Z,58.56
2023-03-11T00:22:59.867Z,57.69
2023-03-11T00:25:27.511Z,58.30
2023-03-11T00:27:54.503Z,58.43
2023-03-11T00:30:21.917Z,57.65
2023-03-11T00:32:49.353Z,59.44
2023-03-11T00:35:17.328Z,59.41
2023-03-11T00:37:45.721Z,59.69
2023-03-11T00:40:13.946Z,57.97
2023-03-11T00:42:40.847Z,59.27
2023-03-11T00:45:07.783Z,58.24
2023-03-11T00:47:34.559Z,58.56
2023-03-11T00:50:01.392Z,58.78
2023-03-11T00:52:29.001Z,59.03
2023-03-11T00:54:56.063Z,57.93
2023-03-11T00:57:22.831Z,58.71
2023-03-11T00:59:49.426Z,60.51
2023-03-11T01:02:16.464Z,59.26
2023-03-11T01:04:43.098Z,58.26
2023-03-11T01:07:11.300Z,56.87
2023-03-11T01:09:38.259Z,56.62
2023-03-11T01:12:05.124Z,56.36
2023-03-11T01:14:31.918Z,56.76
2023-03-11T01:16:58.562Z,56.97
2023-03-11T01:19:25.140Z,57.35
2023-03-11T01:21:53.987Z,56.99
2023-03-11T01:24:20.722Z,56.47
2023-03-11T01:26:47.370Z,55.89
2023-03-11T01:29:14.032Z,56.10
2023-03-11T01:31:40.703Z,56.87
2023-03-11T01:34:07.444Z,56.34
2023-03-11T01:36:34.330Z,56.43
2023-03-11T01:39:00.914Z,56.85
2023-03-11T01:41:27.700Z,56.59
2023-03-11T01:43:54.803Z,56.76
2023-03-11T01:46:26.391Z,57.10
2023-03-11T01:48:57.890Z,55.81
2023-03-11T01:51:35.907Z,56.92
2023-03-11T01:54:05.569Z,56.87
2023-03-11T01:56:33.031Z,57.30
2023-03-11T01:59:00.231Z,57.82
2023-03-11T02:01:27.028Z,58.00
2023-03-11T02:03:55.312Z,57.90
2023-03-11T02:06:23.725Z,58.32
2023-03-11T02:08:51.290Z,57.72
2023-03-11T02:11:24.921Z,57.50
2023-03-11T02:13:54.569Z,58.36
2023-03-11T02:16:21.301Z,57.47
2023-03-11T02:18:48.225Z,57.48
2023-03-11T02:21:26.933Z,57.07
2023-03-11T02:24:14.165Z,57.23
2023-03-11T02:26:44.471Z,56.59
2023-03-11T02:29:12.098Z,58.86
2023-03-11T02:31:43.099Z,57.02
2023-03-11T02:34:16.134Z,57.92
2023-03-11T02:36:43.016Z,57.40
2023-03-11T02:39:12.990Z,57.94
2023-03-11T02:41:41.805Z,59.05
2023-03-11T02:44:10.617Z,58.41
2023-03-11T02:46:38.950Z,58.95
2023-03-11T02:49:06.416Z,58.01
2023-03-11T02:51:33.725Z,57.60
2023-03-11T02:54:03.347Z,59.72
2023-03-11T02:56:30.855Z,58.86
2023-03-11T02:58:59.120Z,59.69
2023-03-11T03:01:25.899Z,58.99
2023-03-11T03:03:53.144Z,58.17
2023-03-11T03:06:19.985Z,58.29
2023-03-11T03:08:50.962Z,58.83
2023-03-11T03:11:17.760Z,57.10
2023-03-11T03:13:46.063Z,57.22
2023-03-11T03:16:12.857Z,57.87
2023-03-11T03:18:39.826Z,57.60
2023-03-11T03:21:08.064Z,57.67
2023-03-11T03:23:37.668Z,57.31
2023-03-11T03:26:05.901Z,57.58
2023-03-11T03:28:35.677Z,57.75
2023-03-11T03:31:07.035Z,57.39
2023-03-11T03:33:34.837Z,57.49
2023-03-11T03:36:05.750Z,57.42
2023-03-11T03:38:38.319Z,58.07
2023-03-11T03:41:05.117Z,57.64
2023-03-11T03:43:33.392Z,56.79
2023-03-11T03:46:04.882Z,58.03
2023-03-11T03:48:38.469Z,57.33
2023-03-11T03:51:08.399Z,56.97
2023-03-11T03:53:37.007Z,57.09
2023-03-11T03:56:04.996Z,58.51
2023-03-11T03:58:33.469Z,58.12
2023-03-11T04:01:00.301Z,57.79
2023-03-11T04:03:27.775Z,57.99
2023-03-11T04:06:25.952Z,57.33
2023-03-11T04:08:57.863Z,56.98
2023-03-11T04:11:29.145Z,57.22
2023-03-11T04:13:56.764Z,57.13
2023-03-11T04:16:24.447Z,60.19
2023-03-11T04:18:57.203Z,60.19
2023-03-11T04:21:24.252Z,57.79
2023-03-11T04:23:51.056Z,58.23
2023-03-11T04:26:21.389Z,58.60
2023-03-11T04:28:48.199Z,57.97
2023-03-11T04:31:15.295Z,58.10
2023-03-11T04:33:42.264Z,59.84
2023-03-11T04:36:10.556Z,59.06
2023-03-11T04:38:38.185Z,58.21
2023-03-11T04:41:07.354Z,57.97
2023-03-11T04:43:36.504Z,57.77
2023-03-11T04:46:03.458Z,57.68
2023-03-11T04:48:30.185Z,54.59
2023-03-11T04:50:57.072Z,54.78
2023-03-11T04:53:24.237Z,54.32
2023-03-11T04:55:52.464Z,54.91
2023-03-11T04:58:19.785Z,53.25
2023-03-11T05:00:47.618Z,53.46
2023-03-11T05:03:15.373Z,53.86
2023-03-11T05:05:42.204Z,54.11
2023-03-11T05:08:09.771Z,54.68
2023-03-11T05:10:36.845Z,54.40
2023-03-11T05:13:06.125Z,55.66
2023-03-11T05:15:37.618Z,54.79
2023-03-11T05:18:05.780Z,52.60
2023-03-11T05:20:34.540Z,51.54
2023-03-11T05:23:01.787Z,50.59
2023-03-11T05:25:30.372Z,47.58
2023-03-11T05:27:57.493Z,47.47
2023-03-11T05:30:24.331Z,46.93
2023-03-11T05:32:51.939Z,46.30
2023-03-11T05:35:18.724Z,46.89
2023-03-11T05:37:45.659Z,46.50
2023-03-11T05:40:13.493Z,46.96
2023-03-11T05:42:41.843Z,46.38
2023-03-11T05:45:10.716Z,45.33
2023-03-11T05:47:39.150Z,45.17
2023-03-11T05:50:06.576Z,45.28
2023-03-11T05:52:33.967Z,44.38
2023-03-11T05:55:00.932Z,44.30
2023-03-11T05:57:29.593Z,44.61
2023-03-11T05:59:56.965Z,45.67
2023-03-11T06:02:24.631Z,46.41
2023-03-11T06:04:51.419Z,46.18
2023-03-11T06:07:18.621Z,46.29
2023-03-11T06:09:49.705Z,45.41
2023-03-11T06:12:18.366Z,45.59
2023-03-11T06:15:03.316Z,45.35
2023-03-11T06:17:30.622Z,45.38
2023-03-11T06:19:57.872Z,45.05
2023-03-11T06:22:25.527Z,45.90
2023-03-11T06:24:52.211Z,46.94
2023-03-11T06:27:19.187Z,46.30
2023-03-11T06:29:48.294Z,47.25
2023-03-11T06:32:15.708Z,47.95
2023-03-11T06:34:42.472Z,47.67
2023-03-11T06:37:09.290Z,47.67
2023-03-11T06:39:35.960Z,47.12
2023-03-11T06:42:02.597Z,47.42
2023-03-11T06:44:29.919Z,47.52
2023-03-11T06:46:56.879Z,48.10
2023-03-11T06:49:23.594Z,47.32
2023-03-11T06:51:50.421Z,47.14
2023-03-11T06:54:17.683Z,46.60
2023-03-11T06:56:45.051Z,47.60
2023-03-11T06:59:14.333Z,47.15
2023-03-11T07:01:41.168Z,47.50
2023-03-11T07:04:10.456Z,47.00
2023-03-11T07:06:39.247Z,46.66
2023-03-11T07:09:11.296Z,47.43
2023-03-11T07:11:42.497Z,47.55
2023-03-11T07:14:13.166Z,47.26
2023-03-11T07:16:44.098Z,47.83
2023-03-11T07:19:18.940Z,47.67
2023-03-11T07:21:45.609Z,47.83
2023-03-11T07:24:14.236Z,48.14
2023-03-11T07:26:42.649Z,46.77
2023-03-11T07:29:10.857Z,46.32
2023-03-11T07:31:38.251Z,46.32
2023-03-11T07:34:11.081Z,45.59
2023-03-11T07:36:39.599Z,45.56
2023-03-11T07:39:06.722Z,46.48
2023-03-11T07:41:34.322Z,45.63
2023-03-11T07:44:01.585Z,45.56
2023-03-11T07:46:29.156Z,44.53
2023-03-11T07:48:55.799Z,44.71
2023-03-11T07:51:24.546Z,45.14
2023-03-11T07:53:52.509Z,44.49
2023-03-11T07:56:20.295Z,43.18
2023-03-11T07:58:47.029Z,43.70
2023-03-11T08:01:17.818Z,43.68
2023-03-11T08:03:45.621Z,42.61
2023-03-11T08:06:22.461Z,42.05
2023-03-11T08:08:49.186Z,42.53
2023-03-11T08:11:16.436Z,41.17
2023-03-11T08:13:43.712Z,40.91
2023-03-11T08:16:11.819Z,42.16
2023-03-11T08:18:38.616Z,42.24
2023-03-11T08:21:06.044Z,41.51
2023-03-11T08:23:33.801Z,41.43
2023-03-11T08:26:04.642Z,40.58
2023-03-11T08:28:31.499Z,40.45
2023-03-11T08:30:58.103Z,39.75
2023-03-11T08:33:24.973Z,38.34
2023-03-11T08:35:51.666Z,38.03
2023-03-11T08:38:18.530Z,36.78
2023-03-11T08:40:45.096Z,36.72
2023-03-11T08:43:15.073Z,37.87
2023-03-11T08:45:41.945Z,38.56
2023-03-11T08:48:10.594Z,38.24
2023-03-11T08:50:52.970Z,37.46
2023-03-11T08:53:21.476Z,37.62
2023-03-11T08:55:48.104Z,37.53
2023-03-11T08:58:14.695Z,36.77
2023-03-11T09:00:41.389Z,34.96
2023-03-11T09:03:08.121Z,34.78
2023-03-11T09:05:34.973Z,36.27
2023-03-11T09:08:04.976Z,34.87
2023-03-11T09:10:32.375Z,33.76
2023-03-11T09:12:58.896Z,34.03
2023-03-11T09:15:25.576Z,33.54
2023-03-11T09:17:53.089Z,33.79
2023-03-11T09:20:20.387Z,33.64
2023-03-11T09:22:47.381Z,34.62
2023-03-11T09:25:16.241Z,34.23
2023-03-11T09:27:43.214Z,35.20
2023-03-11T09:30:10.251Z,36.08
2023-03-11T09:32:37.171Z,35.55
2023-03-11T09:35:04.209Z,35.30
2023-03-11T09:37:30.829Z,35.22
2023-03-11T09:39:57.529Z,35.75
2023-03-11T09:42:33.045Z,35.17
2023-03-11T09:45:17.063Z,34.81
2023-03-11T09:48:02.061Z,35.25
2023-03-11T09:50:34.774Z,35.18
2023-03-11T09:53:13.781Z,33.13
2023-03-11T09:55:40.582Z,33.30
2023-03-11T09:58:15.804Z,32.69
2023-03-11T10:00:42.708Z,32.12
2023-03-11T10:03:38.644Z,31.64
2023-03-11T10:06:26.907Z,31.49
2023-03-11T10:09:03.092Z,30.97
2023-03-11T10:11:32.791Z,29.82
2023-03-11T10:14:10.253Z,29.37
2023-03-11T10:16:39.763Z,30.04
2023-03-11T10:19:45.011Z,32.13
2023-03-11T10:22:20.390Z,30.77
2023-03-11T10:24:58.775Z,30.24
2023-03-11T10:27:30.196Z,31.09
2023-03-11T10:29:59.769Z,31.43
2023-03-11T10:32:34.181Z,30.98
2023-03-11T10:35:06.041Z,31.09
2023-03-11T10:37:48.861Z,30.75
2023-03-11T10:40:31.422Z,32.10
2023-03-11T10:43:00.716Z,32.60
2023-03-11T10:45:38.039Z,32.76
2023-03-11T10:48:11.967Z,32.13
2023-03-11T10:50:42.920Z,32.49
2023-03-11T10:53:11.249Z,33.08
2023-03-11T10:55:45.749Z,36.35
2023-03-11T10:58:13.785Z,38.26
2023-03-11T11:00:40.489Z,39.35
2023-03-11T11:03:16.871Z,38.09
2023-03-11T11:05:43.640Z,39.33
2023-03-11T11:08:14.062Z,39.29
2023-03-11T11:10:54.221Z,39.33
2023-03-11T11:13:22.284Z,38.71
2023-03-11T11:15:56.950Z,37.86
2023-03-11T11:18:25.668Z,36.25
2023-03-11T11:21:12.486Z,36.09
2023-03-11T11:23:39.631Z,34.87
2023-03-11T11:26:08.978Z,36.04
2023-03-11T11:28:35.851Z,34.89
2023-03-11T11:31:04.282Z,36.02
2023-03-11T11:33:32.440Z,35.96
2023-03-11T11:36:03.707Z,34.63
2023-03-11T11:38:32.569Z,35.23
2023-03-11T11:41:01.690Z,35.21
2023-03-11T11:43:34.519Z,35.68
2023-03-11T11:46:05.608Z,35.29
2023-03-11T11:48:44.926Z,34.00
2023-03-11T11:51:35.250Z,34.31
2023-03-11T11:54:25.255Z,33.61
2023-03-11T11:56:51.940Z,33.33
2023-03-11T11:59:20.291Z,33.28
2023-03-11T12:01:47.025Z,32.42
2023-03-11T12:04:19.622Z,32.21
2023-03-11T12:06:54.241Z,32.35
2023-03-11T12:09:24.339Z,32.50
2023-03-11T12:12:01.618Z,31.98
2023-03-11T12:14:36.990Z,30.88
2023-03-11T12:17:04.796Z,30.08
2023-03-11T12:19:37.492Z,30.00
2023-03-11T12:22:21.440Z,28.94
2023-03-11T12:25:06.995Z,29.15
2023-03-11T12:27:37.571Z,28.25
2023-03-11T12:30:15.166Z,28.01
2023-03-11T12:32:48.156Z,28.42
2023-03-11T12:35:24.336Z,28.80
2023-03-11T12:38:13.263Z,29.29
2023-03-11T12:40:50.640Z,31.01
2023-03-11T12:43:29.958Z,31.02
2023-03-11T12:46:01.042Z,31.60
2023-03-11T12:48:36.885Z,31.89
2023-03-11T12:51:05.645Z,31.16
2023-03-11T12:53:43.501Z,32.25
2023-03-11T12:56:35.686Z,32.65
2023-03-11T12:59:33.409Z,32.60
2023-03-11T13:02:24.601Z,31.52
2023-03-11T13:04:59.752Z,32.38
2023-03-11T13:07:39.946Z,32.08
2023-03-11T13:10:21.577Z,31.91
2023-03-11T13:12:50.789Z,32.67
2023-03-11T13:15:39.522Z,32.85
2023-03-11T13:18:23.412Z,32.59
2023-03-11T13:20:59.329Z,33.33
2023-03-11T13:23:28.283Z,34.29
2023-03-11T13:25:54.918Z,34.75
2023-03-11T13:28:52.706Z,36.18
2023-03-11T13:31:38.413Z,36.08
2023-03-11T13:34:41.779Z,37.95
2023-03-11T13:37:29.082Z,39.25
2023-03-11T13:40:23.628Z,40.38
2023-03-11T13:42:54.457Z,42.74
2023-03-11T13:45:36.244Z,43.02
2023-03-11T13:48:18.744Z,43.89
2023-03-11T13:50:56.831Z,44.48
2023-03-11T13:53:34.428Z,44.79
2023-03-11T13:56:01.424Z,44.74
2023-03-11T13:58:29.102Z,44.81
2023-03-11T14:00:59.058Z,46.36
2023-03-11T14:03:34.125Z,46.41
2023-03-11T14:06:03.857Z,45.63
2023-03-11T14:08:41.196Z,46.58
2023-03-11T14:11:11.145Z,45.24
2023-03-11T14:13:46.297Z,46.59
2023-03-11T14:16:23.883Z,45.82
2023-03-11T14:19:12.320Z,47.20
2023-03-11T14:21:44.314Z,47.13
2023-03-11T14:24:20.620Z,49.13
2023-03-11T14:26:48.704Z,47.33
2023-03-11T14:29:20.860Z,48.15
2023-03-11T14:31:48.160Z,47.05
2023-03-11T14:34:21.522Z,47.25
2023-03-11T14:37:00.110Z,46.65
2023-03-11T14:39:32.640Z,45.95
2023-03-11T14:42:07.896Z,45.50
2023-03-11T14:44:42.965Z,46.09
2023-03-11T14:47:18.659Z,45.14
2023-03-11T14:49:47.630Z,45.62
2023-03-11T14:52:21.544Z,45.31
2023-03-11T14:54:49.911Z,45.18
2023-03-11T14:57:24.517Z,45.55
2023-03-11T14:59:53.191Z,44.98
2023-03-11T15:02:31.973Z,46.43
2023-03-11T15:05:00.701Z,45.64
2023-03-11T15:07:27.574Z,44.32
2023-03-11T15:09:55.744Z,46.18
2023-03-11T15:12:41.590Z,47.47
2023-03-11T15:15:41.035Z,48.51
2023-03-11T15:18:23.879Z,51.11
2023-03-11T15:21:06.070Z,51.63
2023-03-11T15:23:35.243Z,52.51
2023-03-11T15:26:02.403Z,52.47
2023-03-11T15:28:30.214Z,52.30
2023-03-11T15:31:21.878Z,52.28
2023-03-11T15:33:49.703Z,52.74
2023-03-11T15:36:55.517Z,52.87
2023-03-11T15:39:28.839Z,52.44
2023-03-11T15:42:07.382Z,51.76
2023-03-11T15:44:49.641Z,52.97
2023-03-11T15:47:19.335Z,51.99
2023-03-11T15:49:47.044Z,53.35
2023-03-11T15:52:14.249Z,52.14
2023-03-11T15:54:41.078Z,52.88
2023-03-11T15:57:12.751Z,53.30
2023-03-11T15:59:41.223Z,53.38
2023-03-11T16:02:18.996Z,54.27
2023-03-11T16:04:45.799Z,54.71
2023-03-11T16:07:12.477Z,55.14
2023-03-11T16:09:39.165Z,56.06
2023-03-11T16:12:14.631Z,54.92
2023-03-11T16:14:41.233Z,53.55
2023-03-11T16:17:08.145Z,54.31
2023-03-11T16:19:34.757Z,55.18
2023-03-11T16:22:02.779Z,54.50
2023-03-11T16:24:29.428Z,53.24
2023-03-11T16:26:56.887Z,53.22
2023-03-11T16:29:24.110Z,54.73
2023-03-11T16:31:50.795Z,53.71
2023-03-11T16:34:17.699Z,53.16
2023-03-11T16:36:44.422Z,53.08
2023-03-11T16:39:11.131Z,52.82
2023-03-11T16:41:42.131Z,52.69
2023-03-11T16:44:09.872Z,54.03
2023-03-11T16:46:36.800Z,53.33
2023-03-11T16:49:03.978Z,54.05
2023-03-11T16:51:30.633Z,55.42
2023-03-11T16:53:57.238Z,53.66
2023-03-11T16:56:23.972Z,53.51
2023-03-11T16:58:50.761Z,54.05
2023-03-11T17:01:19.096Z,53.45
2023-03-11T17:03:48.789Z,52.49
2023-03-11T17:06:16.332Z,52.94
2023-03-11T17:08:49.096Z,53.40
2023-03-11T17:11:28.422Z,53.14
2023-03-11T17:14:03.284Z,52.58
2023-03-11T17:16:40.567Z,52.80
2023-03-11T17:19:07.251Z,52.27
2023-03-11T17:21:33.882Z,53.52
2023-03-11T17:24:00.531Z,53.10
2023-03-11T17:26:30.868Z,53.01
2023-03-11T17:28:57.602Z,52.11
2023-03-11T17:31:24.279Z,52.86
2023-03-11T17:33:52.593Z,53.03
2023-03-11T17:36:19.672Z,54.35
2023-03-11T17:38:47.050Z,52.88
2023-03-11T17:41:16.035Z,52.35
2023-03-11T17:43:43.383Z,52.12
2023-03-11T17:46:11.624Z,52.52
2023-03-11T17:48:38.363Z,52.59
2023-03-11T17:51:06.302Z,52.42
2023-03-11T17:53:33.427Z,52.36
2023-03-11T17:56:00.138Z,50.67
2023-03-11T17:58:27.131Z,52.11
2023-03-11T18:00:53.727Z,52.03
2023-03-11T18:03:20.418Z,51.99
2023-03-11T18:05:57.265Z,52.56
2023-03-11T18:08:24.351Z,52.26
2023-03-11T18:10:51.846Z,51.60
2023-03-11T18:13:19.289Z,52.22
2023-03-11T18:15:46.381Z,53.40
2023-03-11T18:18:13.292Z,52.65
2023-03-11T18:20:40.231Z,52.40
2023-03-11T18:23:06.838Z,52.66
2023-03-11T18:25:34.061Z,52.57
2023-03-11T18:28:00.637Z,51.67
2023-03-11T18:30:27.345Z,51.62
2023-03-11T18:32:53.966Z,51.99
2023-03-11T18:35:21.628Z,52.25
2023-03-11T18:37:48.249Z,53.85
2023-03-11T18:40:15.031Z,52.44
2023-03-11T18:42:41.887Z,51.41
2023-03-11T18:45:08.868Z,52.26
2023-03-11T18:47:35.733Z,51.98
2023-03-11T18:50:04.404Z,51.90
2023-03-11T18:52:31.167Z,51.65
2023-03-11T18:54:57.816Z,51.46
2023-03-11T18:57:24.608Z,51.65
2023-03-11T18:59:52.058Z,52.17
2023-03-11T19:02:19.018Z,52.08
2023-03-11T19:04:45.700Z,51.71
2023-03-11T19:07:12.508Z,52.42
2023-03-11T19:09:39.153Z,52.62
2023-03-11T19:12:05.901Z,51.56
2023-03-11T19:14:33.102Z,51.10
2023-03-11T19:16:59.796Z,51.26
2023-03-11T19:19:26.586Z,50.42
2023-03-11T19:21:53.428Z,50.63
2023-03-11T19:24:21.053Z,51.04
2023-03-11T19:26:47.844Z,49.31
2023-03-11T19:29:14.824Z,49.32
2023-03-11T19:31:43.446Z,48.93
2023-03-11T19:34:10.170Z,49.46
2023-03-11T19:36:36.700Z,48.86
2023-03-11T19:39:03.619Z,48.39
2023-03-11T19:41:30.309Z,47.75
2023-03-11T19:43:56.950Z,48.16
2023-03-11T19:46:23.776Z,48.01
2023-03-11T19:48:50.865Z,47.44
2023-03-11T19:51:19.139Z,48.52
2023-03-11T19:53:47.078Z,48.62
2023-03-11T19:56:13.876Z,48.51
2023-03-11T19:58:41.648Z,47.86
2023-03-11T20:01:15.218Z,47.56
2023-03-11T20:03:43.024Z,47.48
2023-03-11T20:06:09.752Z,47.57
2023-03-11T20:08:37.807Z,47.66
2023-03-11T20:11:05.617Z,47.37
2023-03-11T20:13:33.731Z,46.98
2023-03-11T20:16:11.294Z,47.24
2023-03-11T20:18:38.187Z,48.32
2023-03-11T20:21:05.924Z,47.85
2023-03-11T20:23:32.964Z,47.81
2023-03-11T20:25:59.624Z,46.86
2023-03-11T20:28:26.314Z,47.34
2023-03-11T20:30:53.559Z,47.47
2023-03-11T20:33:20.502Z,47.57
2023-03-11T20:35:47.402Z,47.48
2023-03-11T20:38:14.268Z,46.72
2023-03-11T20:40:41.029Z,47.44
2023-03-11T20:43:07.771Z,47.21
2023-03-11T20:45:34.479Z,46.88
2023-03-11T20:48:01.340Z,46.44
2023-03-11T20:50:29.012Z,46.11
2023-03-11T20:52:55.975Z,46.53
2023-03-11T20:55:22.896Z,46.21
2023-03-11T20:57:49.624Z,46.50
2023-03-11T21:00:16.489Z,46.80
2023-03-11T21:02:43.754Z,46.18
2023-03-11T21:05:11.535Z,46.72
2023-03-11T21:07:38.545Z,45.33
2023-03-11T21:10:06.868Z,45.00
2023-03-11T21:12:33.564Z,45.33
2023-03-11T21:15:00.634Z,45.84
2023-03-11T21:17:27.428Z,45.63
2023-03-11T21:19:54.199Z,45.45
2023-03-11T21:22:21.039Z,46.15
2023-03-11T21:24:54.948Z,46.82
2023-03-11T21:27:26.202Z,43.00
2023-03-11T21:29:53.971Z,43.21
2023-03-11T21:32:20.872Z,42.84
2023-03-11T21:34:47.745Z,43.44
2023-03-11T21:37:14.575Z,42.28
2023-03-11T21:39:41.432Z,43.13
2023-03-11T21:42:08.104Z,43.77
2023-03-11T21:44:34.926Z,43.34
2023-03-11T21:47:02.195Z,42.52
2023-03-11T21:49:28.996Z,42.93
2023-03-11T21:51:55.939Z,42.71
2023-03-11T21:54:22.730Z,42.73
2023-03-11T21:56:49.775Z,43.41
2023-03-11T21:59:16.408Z,42.16
2023-03-11T22:01:43.207Z,41.88
2023-03-11T22:04:10.218Z,41.01
2023-03-11T22:06:36.861Z,40.64
2023-03-11T22:09:04.276Z,40.00
2023-03-11T22:11:31.203Z,40.88
2023-03-11T22:14:00.990Z,40.27
2023-03-11T22:16:27.744Z,39.96
2023-03-11T22:18:54.586Z,39.37
2023-03-11T22:21:21.768Z,39.46
2023-03-11T22:23:48.821Z,39.66
2023-03-11T22:26:16.059Z,39.68
2023-03-11T22:28:42.834Z,38.62
2023-03-11T22:31:11.589Z,38.86
2023-03-11T22:33:38.424Z,38.22
2023-03-11T22:36:05.673Z,38.55
2023-03-11T22:38:32.873Z,38.52
2023-03-11T22:41:02.470Z,38.74
2023-03-11T22:43:29.145Z,39.56
2023-03-11T22:45:55.757Z,39.66
2023-03-11T22:48:22.479Z,38.68
2023-03-11T22:50:49.106Z,38.49
2023-03-11T22:53:15.893Z,39.25
2023-03-11T22:55:43.638Z,39.39
2023-03-11T22:58:10.564Z,38.84
2023-03-11T23:00:37.210Z,39.40
2023-03-11T23:03:04.520Z,38.91
2023-03-11T23:05:40.761Z,40.46
2023-03-11T23:08:08.389Z,40.24
2023-03-11T23:10:35.018Z,41.44
2023-03-11T23:13:01.728Z,40.78
2023-03-11T23:15:28.530Z,40.96
2023-03-11T23:17:55.250Z,40.29
2023-03-11T23:20:21.905Z,41.89
2023-03-11T23:22:48.634Z,41.67
2023-03-11T23:25:16.016Z,41.47
2023-03-11T23:27:43.753Z,41.97
2023-03-11T23:30:11.687Z,41.63
2023-03-11T23:32:38.362Z,40.25
2023-03-11T23:35:05.465Z,40.10
2023-03-11T23:37:32.147Z,41.27
2023-03-11T23:40:01.123Z,40.19
2023-03-11T23:42:27.783Z,40.88
2023-03-11T23:44:54.469Z,40.10
2023-03-11T23:47:21.376Z,41.60
2023-03-11T23:49:48.076Z,40.84
2023-03-11T23:52:14.663Z,40.04
2023-03-11T23:54:41.424Z,40.41
2023-03-11T23:57:08.166Z,40.09
2023-03-11T23:59:34.985Z,41.12
